Time;durP1;ratioP1;P1;durP2;ratioP2;P2;SDS_P1;SDS_P2;PMS_P1;PMS_P2;Temp;Humidity;BMP_temperature;BMP_pressure;BME280_temperature;BME280_humidity;BME280_pressure;Samples;Min_cycle;Max_cycle;Signal;HPM_P1;HPM_P2
2021/05/31 00:00:36;;;;;;;2.97;1.85;;;10.70;55.60;;;;;;5048261;28;20105;-70
2021/05/31 00:03:02;;;;;;;2.60;1.77;;;10.70;55.60;;;;;;5043676;28;20169;-69
2021/05/31 00:05:28;;;;;;;4.38;1.60;;;10.60;55.70;;;;;;5063342;28;20085;-69
2021/05/31 00:07:54;;;;;;;4.32;1.80;;;10.60;55.90;;;;;;5064841;28;20033;-70
2021/05/31 00:10:21;;;;;;;4.07;1.80;;;10.50;55.90;;;;;;5057016;28;20029;-69
2021/05/31 00:12:47;;;;;;;5.03;2.20;;;10.40;55.90;;;;;;5041894;28;20031;-69
2021/05/31 00:15:13;;;;;;;2.72;1.90;;;10.40;56.10;;;;;;5034421;28;20369;-69
2021/05/31 00:17:39;;;;;;;2.85;1.77;;;10.40;56.20;;;;;;5046426;28;20129;-70
2021/05/31 00:20:09;;;;;;;2.60;1.65;;;10.30;56.30;;;;;;5048039;28;20178;-70
2021/05/31 00:22:36;;;;;;;2.33;1.83;;;10.30;56.40;;;;;;5062863;28;20170;-69
2021/05/31 00:25:03;;;;;;;2.10;1.90;;;10.30;56.40;;;;;;5039097;28;20145;-69
2021/05/31 00:27:29;;;;;;;2.55;1.90;;;10.20;56.50;;;;;;5057743;28;20167;-70
2021/05/31 00:29:55;;;;;;;3.30;1.80;;;10.20;56.50;;;;;;5062518;28;20107;-69
2021/05/31 00:32:21;;;;;;;4.15;1.65;;;10.20;56.50;;;;;;5062659;28;20036;-69
2021/05/31 00:34:46;;;;;;;2.22;1.50;;;10.10;56.50;;;;;;5060506;28;20033;-69
2021/05/31 00:37:13;;;;;;;3.50;1.80;;;10.10;56.60;;;;;;5044613;28;20028;-70
2021/05/31 00:39:38;;;;;;;4.72;1.67;;;10.10;57.20;;;;;;5063065;28;20040;-69
2021/05/31 00:42:04;;;;;;;2.65;1.83;;;10.10;56.70;;;;;;5059038;28;20174;-68
2021/05/31 00:44:30;;;;;;;3.13;1.77;;;10.00;56.70;;;;;;5060487;28;20032;-68
2021/05/31 00:46:55;;;;;;;4.57;1.80;;;10.00;56.80;;;;;;5042011;28;20041;-70
2021/05/31 00:49:24;;;;;;;3.17;1.67;;;9.90;56.90;;;;;;5058290;28;20032;-69
2021/05/31 00:51:51;;;;;;;6.60;1.90;;;9.90;57.00;;;;;;5064296;28;20112;-69
2021/05/31 00:54:18;;;;;;;5.03;1.83;;;9.90;57.00;;;;;;5059925;28;20219;-70
2021/05/31 00:56:45;;;;;;;5.45;1.77;;;9.90;57.10;;;;;;5055367;28;20024;-69
2021/05/31 00:59:11;;;;;;;3.50;1.75;;;9.90;57.10;;;;;;5046663;28;20159;-69
2021/05/31 01:01:38;;;;;;;2.40;1.73;;;9.90;57.20;;;;;;5061057;28;20108;-70
2021/05/31 01:04:04;;;;;;;4.03;1.77;;;9.90;57.20;;;;;;5062694;28;20035;-70
2021/05/31 01:06:37;;;;;;;2.75;1.67;;;9.80;57.30;;;;;;5060761;28;20060;-70
2021/05/31 01:09:13;;;;;;;2.80;1.90;;;9.80;57.30;;;;;;5064350;28;20032;-70
2021/05/31 01:12:06;;;;;;;4.00;1.60;;;9.80;57.50;;;;;;5061900;28;20035;-69
2021/05/31 01:14:32;;;;;;;2.40;1.70;;;9.80;57.70;;;;;;5059033;28;20107;-70
2021/05/31 01:17:15;;;;;;;3.35;1.85;;;9.70;57.50;;;;;;5056689;28;20109;-70
2021/05/31 01:20:03;;;;;;;3.83;1.90;;;9.70;57.80;;;;;;5059296;28;20115;-70
2021/05/31 01:22:34;;;;;;;3.22;1.80;;;9.70;57.90;;;;;;5055623;28;20032;-70
2021/05/31 01:25:25;;;;;;;2.53;1.70;;;9.60;57.80;;;;;;5063403;28;20104;-70
2021/05/31 01:28:12;;;;;;;1.95;1.52;;;9.60;58.40;;;;;;5038984;28;20028;-69
2021/05/31 01:30:48;;;;;;;3.65;1.92;;;9.60;57.80;;;;;;5062490;28;20048;-69
2021/05/31 01:33:17;;;;;;;3.42;1.88;;;9.50;58.00;;;;;;5060044;28;20040;-69
2021/05/31 01:35:44;;;;;;;3.47;2.03;;;9.50;58.00;;;;;;5045438;28;20056;-70
2021/05/31 01:38:10;;;;;;;3.13;2.17;;;9.40;58.00;;;;;;5046175;28;20120;-68
2021/05/31 01:40:37;;;;;;;3.08;1.90;;;9.40;58.20;;;;;;5063415;28;20060;-69
2021/05/31 01:43:04;;;;;;;1.70;1.60;;;9.40;58.20;;;;;;5055722;28;20027;-70
2021/05/31 01:45:31;;;;;;;3.45;2.00;;;9.40;58.30;;;;;;5048399;28;20032;-69
2021/05/31 01:48:00;;;;;;;3.40;2.00;;;9.40;58.40;;;;;;5061534;28;20127;-69
2021/05/31 01:50:28;;;;;;;3.10;1.88;;;9.30;58.60;;;;;;5043417;28;20028;-70
2021/05/31 01:52:54;;;;;;;4.13;1.98;;;9.30;58.60;;;;;;5045798;28;20090;-69
2021/05/31 01:55:21;;;;;;;7.93;2.17;;;9.20;58.70;;;;;;5059435;28;20027;-70
2021/05/31 01:57:48;;;;;;;3.08;2.03;;;9.10;58.80;;;;;;5043783;28;20020;-69
2021/05/31 02:00:15;;;;;;;3.58;2.03;;;9.00;59.00;;;;;;5064425;28;20082;-69
2021/05/31 02:02:41;;;;;;;3.53;2.10;;;9.00;59.20;;;;;;5048598;28;20449;-69
2021/05/31 02:05:09;;;;;;;3.65;2.08;;;9.00;59.30;;;;;;5054571;28;20037;-69
2021/05/31 02:07:38;;;;;;;4.85;2.08;;;8.90;59.50;;;;;;5042973;28;20032;-68
2021/05/31 02:10:06;;;;;;;2.53;2.13;;;8.90;59.50;;;;;;5063434;28;20021;-69
2021/05/31 02:12:56;;;;;;;4.07;2.10;;;8.90;59.60;;;;;;5032578;28;20037;-69
2021/05/31 02:15:28;;;;;;;3.00;2.00;;;8.90;59.80;;;;;;5059016;28;20044;-69
2021/05/31 02:18:25;;;;;;;2.83;2.10;;;8.90;59.80;;;;;;5062316;28;20027;-69
2021/05/31 02:21:07;;;;;;;5.43;2.30;;;8.90;60.00;;;;;;5060012;28;20187;-69
2021/05/31 02:23:34;;;;;;;3.53;2.20;;;8.80;60.10;;;;;;5056252;28;20171;-69
2021/05/31 02:26:00;;;;;;;2.65;2.33;;;8.80;59.90;;;;;;5062401;28;20047;-69
2021/05/31 02:28:26;;;;;;;2.67;2.20;;;8.90;60.10;;;;;;5061435;28;20023;-69
2021/05/31 02:30:52;;;;;;;4.57;2.22;;;8.90;60.10;;;;;;5044070;28;20101;-68
2021/05/31 02:33:22;;;;;;;2.30;1.98;;;8.90;60.20;;;;;;5062169;28;20563;-69
2021/05/31 02:35:47;;;;;;;2.28;1.90;;;8.90;60.20;;;;;;5068162;28;20031;-69
2021/05/31 02:38:13;;;;;;;5.28;2.25;;;8.90;60.20;;;;;;5040943;28;20491;-69
2021/05/31 02:40:38;;;;;;;3.45;2.10;;;8.90;60.30;;;;;;5062300;28;20032;-69
2021/05/31 02:43:08;;;;;;;3.67;2.30;;;8.90;60.40;;;;;;5058696;28;20031;-69
2021/05/31 02:45:34;;;;;;;4.05;2.50;;;8.90;60.50;;;;;;5063361;28;20031;-68
2021/05/31 02:48:00;;;;;;;2.58;2.20;;;8.90;60.60;;;;;;5067178;28;20029;-69
2021/05/31 02:50:29;;;;;;;3.63;2.38;;;8.90;60.60;;;;;;5044140;28;20025;-68
2021/05/31 02:52:56;;;;;;;3.20;2.33;;;8.90;60.60;;;;;;5061910;28;20016;-69
2021/05/31 02:55:23;;;;;;;4.38;2.45;;;8.90;60.70;;;;;;5043337;28;20047;-69
2021/05/31 02:57:50;;;;;;;3.20;2.30;;;8.90;60.80;;;;;;5066358;28;20047;-69
2021/05/31 03:00:17;;;;;;;2.50;2.30;;;8.90;60.90;;;;;;5057353;28;20395;-69
2021/05/31 03:02:43;;;;;;;2.40;2.20;;;8.90;61.00;;;;;;5062079;28;20028;-69
2021/05/31 03:05:20;;;;;;;3.17;2.55;;;8.90;61.10;;;;;;5062996;28;20397;-69
2021/05/31 03:07:46;;;;;;;3.25;2.30;;;9.00;61.30;;;;;;5063145;28;20020;-68
2021/05/31 03:10:14;;;;;;;2.33;2.00;;;8.90;61.70;;;;;;5061878;28;20030;-69
2021/05/31 03:12:40;;;;;;;2.47;2.22;;;8.90;61.30;;;;;;5059097;28;20048;-68
2021/05/31 03:15:08;;;;;;;3.63;2.22;;;8.90;61.30;;;;;;5063684;28;20082;-69
2021/05/31 03:17:34;;;;;;;4.07;2.17;;;8.90;61.30;;;;;;5064053;28;20078;-69
2021/05/31 03:19:59;;;;;;;2.10;1.90;;;8.90;61.50;;;;;;5055395;28;20461;-69
2021/05/31 03:22:25;;;;;;;5.57;2.00;;;8.80;61.60;;;;;;5063370;28;20027;-70
2021/05/31 03:24:50;;;;;;;2.70;2.40;;;8.90;61.70;;;;;;5047133;28;20119;-69
2021/05/31 03:27:16;;;;;;;4.13;2.47;;;8.90;61.90;;;;;;5064904;28;20032;-68
2021/05/31 03:29:42;;;;;;;5.68;2.55;;;8.90;62.00;;;;;;5046979;28;20033;-69
2021/05/31 03:32:08;;;;;;;3.53;2.17;;;9.00;62.00;;;;;;5057082;28;20431;-69
2021/05/31 03:34:34;;;;;;;2.67;2.28;;;9.00;62.10;;;;;;5064176;28;20495;-69
2021/05/31 03:36:59;;;;;;;3.35;2.30;;;9.00;62.10;;;;;;5060340;28;20110;-69
2021/05/31 03:39:25;;;;;;;3.28;2.35;;;8.90;62.10;;;;;;5040092;28;20028;-68
2021/05/31 03:41:51;;;;;;;3.13;2.10;;;8.90;62.20;;;;;;5063554;28;20086;-68
2021/05/31 03:44:16;;;;;;;3.97;2.53;;;8.90;62.20;;;;;;5063905;28;20023;-70
2021/05/31 03:46:42;;;;;;;3.45;2.35;;;8.90;62.40;;;;;;5059291;28;20070;-69
2021/05/31 03:49:08;;;;;;;2.47;2.20;;;8.90;62.40;;;;;;5043761;28;20016;-69
2021/05/31 03:51:33;;;;;;;3.60;2.67;;;8.90;62.40;;;;;;5040912;28;20021;-69
2021/05/31 03:53:59;;;;;;;2.90;2.20;;;8.90;62.50;;;;;;5057915;28;20396;-69
2021/05/31 03:56:24;;;;;;;2.53;2.30;;;8.90;62.60;;;;;;5060006;28;20422;-69
2021/05/31 03:58:52;;;;;;;3.83;2.38;;;8.80;62.60;;;;;;5063869;28;20020;-69
2021/05/31 04:01:18;;;;;;;2.72;2.10;;;8.80;62.80;;;;;;5054237;28;20028;-69
2021/05/31 04:03:45;;;;;;;3.78;2.10;;;8.80;62.90;;;;;;5057806;28;20404;-68
2021/05/31 04:14:19;;;;;;;3.55;2.60;;;8.80;63.10;;;;;;5050460;28;20099;-70
2021/05/31 04:16:50;;;;;;;3.03;2.45;;;8.80;63.10;;;;;;5061182;28;20369;-69
2021/05/31 04:19:19;;;;;;;2.88;2.58;;;8.80;63.40;;;;;;5060592;28;20468;-69
2021/05/31 04:21:47;;;;;;;3.15;2.58;;;8.80;63.40;;;;;;5055133;28;20422;-69
2021/05/31 04:24:14;;;;;;;3.65;2.70;;;8.80;63.40;;;;;;5062798;28;20048;-69
2021/05/31 04:26:41;;;;;;;3.65;2.63;;;8.90;63.50;;;;;;5057891;28;20146;-69
2021/05/31 04:29:09;;;;;;;2.92;2.50;;;8.90;63.50;;;;;;5068715;28;20013;-69
2021/05/31 04:31:35;;;;;;;2.97;2.67;;;9.00;63.50;;;;;;5040811;28;20029;-68
2021/05/31 04:34:05;;;;;;;3.22;2.80;;;9.00;63.40;;;;;;5034461;28;20103;-69
2021/05/31 04:36:31;;;;;;;3.08;2.42;;;9.10;63.60;;;;;;5057060;28;20697;-69
2021/05/31 04:38:58;;;;;;;3.30;2.40;;;9.20;63.50;;;;;;5059001;28;20093;-68
2021/05/31 04:41:24;;;;;;;4.85;2.70;;;9.20;63.50;;;;;;5060009;28;20073;-68
2021/05/31 04:43:49;;;;;;;3.55;2.63;;;9.30;63.50;;;;;;5044492;28;20064;-69
2021/05/31 04:46:15;;;;;;;3.38;2.80;;;9.40;63.60;;;;;;5043906;28;20055;-69
2021/05/31 04:48:41;;;;;;;3.15;2.50;;;9.50;63.50;;;;;;5064413;28;20025;-69
2021/05/31 04:51:06;;;;;;;3.38;2.50;;;9.60;63.50;;;;;;5051527;28;20035;-69
2021/05/31 04:53:32;;;;;;;2.65;2.45;;;9.70;63.50;;;;;;5058246;28;20055;-69
2021/05/31 04:56:02;;;;;;;5.07;2.50;;;9.90;63.60;;;;;;5060154;28;20032;-69
2021/05/31 04:58:28;;;;;;;2.78;2.40;;;10.00;63.60;;;;;;5066479;28;20016;-69
2021/05/31 05:00:53;;;;;;;3.38;2.58;;;10.10;63.60;;;;;;5064221;28;20040;-69
2021/05/31 05:03:19;;;;;;;3.65;2.47;;;10.20;63.60;;;;;;5063694;28;20111;-69
2021/05/31 05:05:46;;;;;;;3.08;2.60;;;10.40;64.20;;;;;;5060466;28;20020;-69
2021/05/31 05:08:12;;;;;;;3.35;2.80;;;10.50;63.70;;;;;;5065866;28;20032;-69
2021/05/31 05:10:38;;;;;;;3.78;2.70;;;10.60;63.50;;;;;;5047224;28;20029;-69
2021/05/31 05:13:04;;;;;;;3.35;2.55;;;10.80;63.40;;;;;;5046141;28;20021;-69
2021/05/31 05:15:29;;;;;;;5.18;2.80;;;10.90;63.20;;;;;;5059849;28;20108;-69
2021/05/31 05:17:56;;;;;;;2.95;2.60;;;11.10;63.10;;;;;;5063779;28;20029;-69
2021/05/31 05:20:24;;;;;;;4.15;2.63;;;11.20;63.40;;;;;;5064907;28;20021;-69
2021/05/31 05:22:50;;;;;;;2.83;2.53;;;11.30;62.80;;;;;;5048684;28;20032;-69
2021/05/31 05:25:17;;;;;;;3.00;2.70;;;11.40;62.80;;;;;;5062767;28;20028;-69
2021/05/31 05:27:44;;;;;;;3.30;2.60;;;11.50;62.70;;;;;;5056383;28;20074;-69
2021/05/31 05:30:13;;;;;;;3.30;2.92;;;11.70;62.70;;;;;;5048219;28;20031;-69
2021/05/31 05:32:40;;;;;;;4.32;2.47;;;11.80;62.60;;;;;;5059188;28;20103;-70
2021/05/31 05:35:33;;;;;;;4.47;2.83;;;12.00;62.40;;;;;;5067010;28;20059;-69
2021/05/31 05:38:27;;;;;;;3.22;2.55;;;12.10;62.50;;;;;;5065999;28;20039;-69
2021/05/31 05:48:28;;;;;;;4.40;2.47;;;12.60;61.80;;;;;;5065261;28;20027;-69
2021/05/31 05:51:08;;;;;;;2.65;2.45;;;12.70;61.70;;;;;;5066059;28;20025;-69
2021/05/31 05:53:39;;;;;;;3.65;2.47;;;12.80;61.70;;;;;;5065772;28;20046;-69
2021/05/31 05:56:07;;;;;;;2.38;2.17;;;12.90;61.60;;;;;;5063333;28;20035;-70
2021/05/31 05:58:33;;;;;;;3.67;2.40;;;13.00;61.50;;;;;;5066111;28;20107;-69
2021/05/31 06:01:00;;;;;;;4.18;2.05;;;13.20;61.50;;;;;;5046436;28;20540;-69
2021/05/31 06:03:26;;;;;;;2.90;2.28;;;13.40;61.40;;;;;;5064432;28;20024;-70
2021/05/31 06:05:57;;;;;;;2.55;2.17;;;13.50;61.20;;;;;;5064793;28;20136;-70
2021/05/31 06:08:23;;;;;;;3.70;2.40;;;13.70;60.90;;;;;;5046900;28;20425;-69
2021/05/31 06:10:49;;;;;;;3.42;2.42;;;13.80;60.60;;;;;;5066648;28;20033;-69
2021/05/31 06:13:15;;;;;;;4.25;2.50;;;13.80;60.50;;;;;;5048456;28;20023;-69
2021/05/31 06:15:41;;;;;;;3.97;2.60;;;14.00;60.50;;;;;;5047990;28;20100;-68
2021/05/31 06:18:07;;;;;;;5.25;2.88;;;14.00;60.20;;;;;;5066286;28;20520;-70
2021/05/31 06:20:37;;;;;;;3.05;2.33;;;14.10;59.80;;;;;;5049303;28;20033;-69
2021/05/31 06:23:10;;;;;;;3.85;2.53;;;14.20;59.70;;;;;;5067532;28;20523;-70
2021/05/31 06:25:36;;;;;;;4.05;2.83;;;14.30;59.40;;;;;;5050198;28;20897;-70
2021/05/31 06:28:04;;;;;;;2.22;2.08;;;14.40;59.20;;;;;;5071289;28;20078;-69
2021/05/31 06:30:30;;;;;;;4.47;2.25;;;14.60;59.10;;;;;;5051398;28;20023;-69
2021/05/31 06:32:56;;;;;;;2.53;2.33;;;14.70;58.80;;;;;;5052378;28;20037;-70
2021/05/31 06:35:24;;;;;;;3.17;2.20;;;14.80;58.70;;;;;;5069227;28;20012;-70
2021/05/31 06:37:49;;;;;;;3.10;2.47;;;14.90;58.40;;;;;;5067645;28;20046;-69
2021/05/31 06:40:15;;;;;;;3.88;2.45;;;15.10;58.40;;;;;;5053465;28;20549;-70
2021/05/31 06:42:43;;;;;;;3.22;2.70;;;15.20;58.20;;;;;;5051451;28;20024;-70
2021/05/31 06:45:24;;;;;;;2.35;2.15;;;15.40;57.90;;;;;;5069239;28;20123;-70
2021/05/31 06:47:51;;;;;;;2.35;2.15;;;15.60;57.50;;;;;;5068193;28;20021;-70
2021/05/31 06:50:18;;;;;;;5.30;2.40;;;15.70;57.30;;;;;;5069391;28;20021;-71
2021/05/31 06:52:43;;;;;;;3.80;2.60;;;15.80;57.00;;;;;;5069261;28;20040;-71
2021/05/31 06:55:10;;;;;;;3.47;2.50;;;15.90;56.80;;;;;;5068914;28;20060;-71
2021/05/31 06:57:36;;;;;;;3.67;2.53;;;16.10;56.70;;;;;;5068171;28;20021;-71
2021/05/31 07:00:05;;;;;;;3.03;2.40;;;16.20;56.60;;;;;;5069503;28;20036;-70
2021/05/31 07:02:31;;;;;;;6.30;2.63;;;16.30;56.10;;;;;;5068424;28;20045;-70
2021/05/31 07:04:56;;;;;;;4.22;2.53;;;16.40;55.90;;;;;;5068098;28;20029;-70
2021/05/31 07:07:22;;;;;;;2.63;2.10;;;16.60;55.90;;;;;;5069223;28;20024;-69
2021/05/31 07:09:48;;;;;;;4.55;2.70;;;16.70;55.90;;;;;;5051898;28;20031;-70
2021/05/31 07:12:15;;;;;;;2.88;2.13;;;17.00;55.90;;;;;;5066802;28;20077;-69
2021/05/31 07:14:44;;;;;;;2.33;2.13;;;17.20;55.50;;;;;;5069111;28;20337;-69
2021/05/31 07:17:12;;;;;;;3.75;2.15;;;17.30;55.10;;;;;;5067886;28;20028;-69
2021/05/31 07:19:40;;;;;;;2.78;2.00;;;17.50;54.70;;;;;;5049559;28;20085;-69
2021/05/31 07:22:06;;;;;;;2.10;1.80;;;17.70;54.30;;;;;;5064445;28;20431;-69
2021/05/31 07:24:31;;;;;;;4.05;2.00;;;17.80;54.00;;;;;;5067685;28;20024;-69
2021/05/31 07:26:57;;;;;;;2.78;1.98;;;18.00;53.80;;;;;;5066161;28;20032;-69
2021/05/31 07:29:23;;;;;;;3.00;2.17;;;18.10;53.50;;;;;;5069087;28;20104;-70
2021/05/31 07:31:49;;;;;;;2.85;1.63;;;18.30;53.10;;;;;;5066398;28;20024;-70
2021/05/31 07:34:15;;;;;;;2.50;1.90;;;18.40;52.50;;;;;;5048659;28;20100;-69
2021/05/31 07:36:41;;;;;;;15.30;11.73;;;18.60;52.10;;;;;;5048765;28;20027;-69
2021/05/31 07:39:08;;;;;;;4.50;2.13;;;18.80;51.90;;;;;;5068749;28;20441;-69
2021/05/31 07:41:34;;;;;;;3.97;2.58;;;19.00;51.40;;;;;;5068079;28;20036;-69
2021/05/31 07:44:00;;;;;;;1.13;1.13;;;19.30;50.80;;;;;;5067209;28;20032;-69
2021/05/31 07:46:25;;;;;;;1.52;1.42;;;19.50;50.00;;;;;;5070022;28;20086;-68
2021/05/31 07:48:52;;;;;;;1.80;1.58;;;19.60;49.50;;;;;;5069806;28;20024;-69
2021/05/31 07:51:18;;;;;;;5.05;1.52;;;19.70;49.10;;;;;;5069799;28;20056;-70
2021/05/31 07:53:56;;;;;;;2.22;1.58;;;19.80;48.50;;;;;;5070433;28;20016;-70
2021/05/31 07:56:27;;;;;;;1.60;1.40;;;19.90;47.70;;;;;;5066562;28;20012;-69
2021/05/31 07:58:56;;;;;;;3.17;1.40;;;20.00;47.60;;;;;;5066981;28;20025;-70
2021/05/31 08:03:50;;;;;;;1.95;1.40;;;20.20;46.70;;;;;;5037740;28;20056;-73
2021/05/31 08:06:17;;;;;;;4.20;1.50;;;20.40;46.40;;;;;;5021611;28;20112;-72
2021/05/31 08:08:43;;;;;;;3.13;1.45;;;20.60;46.10;;;;;;5039936;28;20388;-73
2021/05/31 08:11:10;;;;;;;6.05;1.50;;;20.90;45.80;;;;;;5040460;28;20030;-73
2021/05/31 08:13:37;;;;;;;7.75;1.60;;;21.30;45.20;;;;;;5038958;28;20648;-70
2021/05/31 08:16:04;;;;;;;1.63;1.52;;;21.60;44.70;;;;;;5037740;28;20034;-70
2021/05/31 08:18:30;;;;;;;1.52;1.42;;;21.90;44.00;;;;;;5039035;28;20109;-70
2021/05/31 08:20:56;;;;;;;5.88;2.40;;;22.20;43.70;;;;;;5038841;28;20028;-70
2021/05/31 08:23:21;;;;;;;2.40;1.80;;;22.50;43.80;;;;;;5039122;28;20025;-71
2021/05/31 08:25:47;;;;;;;1.92;1.33;;;22.70;43.00;;;;;;5038414;28;20481;-70
2021/05/31 08:28:13;;;;;;;2.85;1.48;;;22.80;42.10;;;;;;5037995;28;20128;-70
2021/05/31 08:30:41;;;;;;;2.75;1.38;;;22.90;41.50;;;;;;5038544;28;20033;-71
2021/05/31 08:33:08;;;;;;;1.70;1.20;;;23.00;40.80;;;;;;5039858;28;20063;-71
2021/05/31 08:35:35;;;;;;;2.58;1.50;;;23.10;40.80;;;;;;5038685;28;20526;-70
2021/05/31 08:38:01;;;;;;;1.38;1.27;;;23.60;40.60;;;;;;5039235;28;20481;-70
2021/05/31 08:40:26;;;;;;;1.20;1.20;;;24.00;39.50;;;;;;5039630;28;20029;-70
2021/05/31 08:42:52;;;;;;;1.55;1.45;;;24.50;39.10;;;;;;5040081;28;20024;-71
2021/05/31 08:45:21;;;;;;;2.35;1.65;;;25.00;37.90;;;;;;5038026;28;20390;-71
2021/05/31 08:47:49;;;;;;;2.20;1.30;;;25.30;37.00;;;;;;5037972;28;20033;-70
2021/05/31 08:50:25;;;;;;;3.45;1.30;;;25.70;36.20;;;;;;5039518;28;20032;-71
2021/05/31 08:52:52;;;;;;;2.60;1.23;;;26.00;35.10;;;;;;5039455;28;20036;-70
2021/05/31 08:55:21;;;;;;;1.70;1.60;;;26.20;35.10;;;;;;5037698;28;20049;-71
2021/05/31 08:57:47;;;;;;;2.78;1.55;;;26.50;34.90;;;;;;5039496;28;20123;-71
2021/05/31 09:00:16;;;;;;;2.40;1.77;;;26.80;34.60;;;;;;5039303;28;20032;-71
2021/05/31 09:02:42;;;;;;;2.85;2.53;;;27.20;34.20;;;;;;5038366;28;20369;-71
2021/05/31 09:05:10;;;;;;;1.85;1.60;;;27.70;34.20;;;;;;5034635;28;20033;-71
2021/05/31 09:07:36;;;;;;;3.38;1.77;;;27.90;33.60;;;;;;5039185;28;20040;-71
2021/05/31 09:10:05;;;;;;;2.95;2.10;;;28.10;33.30;;;;;;5038301;28;20454;-71
2021/05/31 09:12:35;;;;;;;3.53;1.80;;;28.20;33.40;;;;;;5038994;28;20115;-71
2021/05/31 09:15:07;;;;;;;3.05;1.63;;;28.50;33.10;;;;;;5035924;28;20017;-71
2021/05/31 09:17:34;;;;;;;2.38;1.55;;;28.50;32.30;;;;;;5038578;28;20478;-71
2021/05/31 09:20:01;;;;;;;2.15;1.60;;;28.30;32.40;;;;;;5038605;28;20029;-71
2021/05/31 09:22:28;;;;;;;5.38;1.95;;;28.20;32.60;;;;;;5037687;28;20079;-71
2021/05/31 09:24:54;;;;;;;2.40;1.70;;;28.30;32.60;;;;;;5037421;28;20025;-70
2021/05/31 09:27:20;;;;;;;3.83;1.73;;;28.50;32.60;;;;;;5039336;28;20032;-70
2021/05/31 09:30:07;;;;;;;1.75;1.50;;;28.90;32.70;;;;;;5038446;28;20381;-69
2021/05/31 09:32:33;;;;;;;2.08;1.50;;;29.20;32.00;;;;;;5037696;28;20018;-69
2021/05/31 09:35:01;;;;;;;1.67;1.58;;;29.50;31.60;;;;;;5037221;28;20033;-70
2021/05/31 09:37:27;;;;;;;1.70;1.60;;;29.60;31.50;;;;;;5039076;28;20021;-70
2021/05/31 09:40:04;;;;;;;1.73;1.63;;;29.50;31.10;;;;;;5039444;28;20452;-70
2021/05/31 09:42:31;;;;;;;4.13;1.70;;;29.60;30.80;;;;;;5039785;28;20492;-70
2021/05/31 09:45:06;;;;;;;2.25;1.52;;;29.90;31.40;;;;;;5036774;28;20044;-70
2021/05/31 09:47:34;;;;;;;3.50;1.67;;;30.00;30.30;;;;;;5036745;28;20029;-70
2021/05/31 09:50:00;;;;;;;3.20;1.60;;;29.70;30.70;;;;;;5019157;28;20032;-70
2021/05/31 09:52:26;;;;;;;2.05;1.40;;;29.60;30.90;;;;;;5038504;28;20596;-70
2021/05/31 09:54:53;;;;;;;1.88;1.35;;;29.40;31.20;;;;;;5037885;28;20097;-70
2021/05/31 09:57:28;;;;;;;1.30;1.20;;;29.40;31.50;;;;;;5036062;28;20469;-70
2021/05/31 10:00:02;;;;;;;4.78;1.30;;;29.20;31.30;;;;;;5038111;28;20044;-70
2021/05/31 10:02:39;;;;;;;2.72;1.80;;;29.00;31.80;;;;;;5024791;28;20095;-70
2021/05/31 10:07:49;;;;;;;2.17;1.50;;;28.40;31.80;;;;;;5042067;28;20079;-70
2021/05/31 10:10:15;;;;;;;3.10;1.50;;;28.20;32.20;;;;;;5042787;28;20033;-70
2021/05/31 10:12:41;;;;;;;1.50;1.40;;;28.10;32.50;;;;;;5042309;28;20082;-70
2021/05/31 10:15:08;;;;;;;1.33;1.23;;;28.00;32.40;;;;;;5041261;28;20024;-70
2021/05/31 10:17:34;;;;;;;2.85;1.30;;;27.90;32.30;;;;;;5041728;28;20025;-70
2021/05/31 10:20:02;;;;;;;1.50;1.40;;;27.60;32.20;;;;;;5043073;28;20017;-70
2021/05/31 10:22:31;;;;;;;3.65;1.50;;;27.30;32.50;;;;;;5038692;28;20029;-69
2021/05/31 10:24:59;;;;;;;2.35;1.20;;;27.10;32.40;;;;;;5041258;28;20037;-70
2021/05/31 10:27:29;;;;;;;1.45;1.30;;;26.90;32.50;;;;;;5041081;28;20043;-70
2021/05/31 10:29:55;;;;;;;1.55;1.45;;;26.70;32.90;;;;;;5022557;28;20032;-69
2021/05/31 10:32:21;;;;;;;2.38;1.52;;;26.50;32.60;;;;;;5040576;28;20025;-68
2021/05/31 10:34:49;;;;;;;1.40;1.20;;;26.30;32.50;;;;;;5040682;28;20036;-68
2021/05/31 10:37:21;;;;;;;1.55;1.20;;;26.10;33.60;;;;;;5038010;28;20021;-67
2021/05/31 10:39:57;;;;;;;1.98;1.20;;;26.00;33.30;;;;;;5040612;28;20020;-69
2021/05/31 10:42:23;;;;;;;3.05;1.40;;;25.80;32.90;;;;;;5042207;28;20420;-68
2021/05/31 10:44:49;;;;;;;1.38;1.30;;;25.50;33.20;;;;;;5041974;28;20025;-68
2021/05/31 10:47:25;;;;;;;2.03;1.30;;;25.30;33.10;;;;;;5042084;28;20043;-68
2021/05/31 10:50:01;;;;;;;1.90;1.20;;;25.10;33.30;;;;;;5041840;28;20033;-68
2021/05/31 10:52:26;;;;;;;2.05;1.60;;;24.80;33.40;;;;;;5040615;28;20103;-69
2021/05/31 10:54:52;;;;;;;4.70;1.67;;;24.50;34.40;;;;;;5041304;28;20100;-69
2021/05/31 10:57:18;;;;;;;3.42;1.50;;;24.40;34.90;;;;;;5042166;28;20016;-69
2021/05/31 10:59:49;;;;;;;1.30;1.20;;;24.20;34.90;;;;;;5041917;28;20053;-69
2021/05/31 11:02:28;;;;;;;3.03;1.40;;;24.10;34.70;;;;;;5041250;28;20049;-69
2021/05/31 11:05:08;;;;;;;1.98;1.50;;;23.90;34.20;;;;;;5040286;28;20021;-69
2021/05/31 11:07:33;;;;;;;1.60;1.30;;;23.60;34.50;;;;;;5040615;28;20040;-69
2021/05/31 11:09:59;;;;;;;3.05;1.42;;;23.50;35.00;;;;;;5041910;28;20465;-69
2021/05/31 11:12:32;;;;;;;5.68;1.75;;;23.30;35.10;;;;;;5040958;28;20033;-69
2021/05/31 11:15:14;;;;;;;1.65;1.30;;;23.30;34.90;;;;;;5039940;28;20037;-69
2021/05/31 11:17:53;;;;;;;1.98;1.40;;;23.20;35.20;;;;;;5041178;28;20028;-69
2021/05/31 11:20:20;;;;;;;1.73;1.23;;;23.20;35.70;;;;;;5038154;28;20037;-69
2021/05/31 11:23:01;;;;;;;1.52;1.42;;;23.20;35.90;;;;;;5040534;28;20021;-72
2021/05/31 11:25:28;;;;;;;1.55;1.45;;;23.10;36.00;;;;;;5038822;28;20024;-69
2021/05/31 11:28:00;;;;;;;1.70;1.50;;;23.00;35.70;;;;;;5041004;28;20358;-69
2021/05/31 11:30:29;;;;;;;1.83;1.65;;;22.90;36.00;;;;;;5041510;28;20028;-69
2021/05/31 11:32:59;;;;;;;2.63;1.45;;;22.80;36.60;;;;;;5041760;28;20025;-69
2021/05/31 11:35:25;;;;;;;1.63;1.20;;;22.80;36.60;;;;;;5039371;28;20025;-69
2021/05/31 11:37:51;;;;;;;1.40;1.30;;;22.80;36.60;;;;;;5040547;28;20021;-69
2021/05/31 11:40:23;;;;;;;2.42;1.15;;;22.80;36.90;;;;;;5040771;28;20052;-72
2021/05/31 11:42:52;;;;;;;1.40;1.30;;;22.90;37.40;;;;;;5041875;28;20107;-69
2021/05/31 11:45:20;;;;;;;1.70;1.60;;;22.90;36.90;;;;;;5040318;28;20056;-69
2021/05/31 11:47:53;;;;;;;1.60;1.50;;;22.80;36.90;;;;;;5040929;28;20025;-70
2021/05/31 11:50:20;;;;;;;1.92;1.67;;;22.80;36.90;;;;;;5040721;28;20436;-69
2021/05/31 11:52:46;;;;;;;1.83;1.40;;;22.70;36.60;;;;;;5041067;28;20082;-69
2021/05/31 11:55:17;;;;;;;1.40;1.30;;;22.60;36.50;;;;;;5036258;28;20103;-70
2021/05/31 11:57:43;;;;;;;1.67;1.57;;;22.50;37.30;;;;;;5040270;28;20021;-69
2021/05/31 12:00:10;;;;;;;1.98;1.60;;;22.60;37.20;;;;;;5041285;28;20666;-69
2021/05/31 12:02:39;;;;;;;2.88;1.40;;;22.60;37.30;;;;;;5039505;28;20029;-70
2021/05/31 12:05:07;;;;;;;1.45;1.30;;;22.70;37.70;;;;;;5037753;28;20025;-70
2021/05/31 12:07:39;;;;;;;1.50;1.40;;;22.60;36.90;;;;;;5037720;28;20032;-70
2021/05/31 12:10:05;;;;;;;2.47;1.48;;;22.50;37.00;;;;;;5038538;28;20543;-69
2021/05/31 12:12:31;;;;;;;1.67;1.40;;;22.50;37.20;;;;;;5038541;28;20462;-71
2021/05/31 12:14:57;;;;;;;1.85;1.45;;;22.40;36.90;;;;;;5038534;28;20028;-70
2021/05/31 12:17:26;;;;;;;1.58;1.40;;;22.50;37.70;;;;;;5037517;28;20036;-68
2021/05/31 12:19:53;;;;;;;2.33;1.60;;;22.50;37.30;;;;;;5038147;28;20044;-69
2021/05/31 12:22:21;;;;;;;4.40;1.58;;;22.50;37.40;;;;;;5037407;28;20021;-69
2021/05/31 12:24:49;;;;;;;1.83;1.50;;;22.50;37.50;;;;;;5037220;28;20484;-72
2021/05/31 12:27:28;;;;;;;3.17;1.38;;;22.50;37.10;;;;;;5020770;28;20478;-70
2021/05/31 12:29:55;;;;;;;5.55;1.48;;;22.50;38.00;;;;;;5040764;28;20044;-69
2021/05/31 12:32:23;;;;;;;1.65;1.55;;;22.50;38.00;;;;;;5039912;28;20020;-69
2021/05/31 12:34:49;;;;;;;2.15;1.50;;;22.50;38.30;;;;;;5037873;28;20029;-68
2021/05/31 12:37:35;;;;;;;1.70;1.52;;;22.60;38.00;;;;;;5039370;28;20109;-72
2021/05/31 12:40:09;;;;;;;4.43;1.20;;;22.60;38.40;;;;;;5040627;28;20116;-69
2021/05/31 12:42:35;;;;;;;1.75;1.30;;;22.60;38.40;;;;;;5040309;28;20495;-69
2021/05/31 12:45:12;;;;;;;1.70;1.60;;;22.70;38.90;;;;;;5038819;28;20044;-72
2021/05/31 12:47:39;;;;;;;1.52;1.42;;;22.60;37.70;;;;;;5038223;28;20079;-69
2021/05/31 12:50:37;;;;;;;2.15;1.70;;;22.30;38.20;;;;;;5041132;28;20131;-69
2021/05/31 12:53:08;;;;;;;1.60;1.50;;;22.20;38.10;;;;;;5022165;28;20119;-68
2021/05/31 12:55:37;;;;;;;3.17;1.80;;;22.20;38.30;;;;;;5037905;28;20017;-69
2021/05/31 12:58:15;;;;;;;3.90;1.50;;;22.20;38.90;;;;;;5034619;28;20290;-69
2021/05/31 13:00:42;;;;;;;3.08;1.52;;;22.10;38.20;;;;;;5036913;28;20021;-69
2021/05/31 13:03:08;;;;;;;1.58;1.48;;;22.10;38.30;;;;;;5039184;28;20043;-72
2021/05/31 13:05:39;;;;;;;2.55;1.80;;;22.00;38.30;;;;;;5037463;28;20033;-69
2021/05/31 13:08:11;;;;;;;1.60;1.50;;;22.00;38.40;;;;;;5038210;28;20127;-69
2021/05/31 13:10:40;;;;;;;6.22;1.63;;;21.90;38.80;;;;;;5038526;28;20416;-69
2021/05/31 13:13:11;;;;;;;2.10;1.45;;;21.90;38.70;;;;;;5037650;28;20025;-69
2021/05/31 13:15:38;;;;;;;1.33;1.33;;;21.90;38.60;;;;;;5037579;28;20044;-70
2021/05/31 13:18:23;;;;;;;2.28;1.67;;;21.80;38.70;;;;;;5036032;28;20029;-71